^^
Station Historical Data
Daily Summary for August 13, 2017 Units:  Both    English   Metric
« Previous Day
Next Day »
Daily Weekly Monthly Yearly Custom
  High: Low: Average:
Temperature: 79.2 °F /  26.2 °C 45.9 °F /  7.7 °C 61.5 °F /  16.4 °C
Dew Point: 25.7 °F /  -3.5 °C 17.4 °F /  -8.1 °C 20.6 °F /  -6.3 °C
Humidity: 42% 10% 22%
Wind Speed: 6.9mph /  11.1km/h - 0.5mph /  0.8km/h
Wind Gust: 8.0mph /  12.9km/h - -
Wind- - SSE
Pressure: 30.36 in /  1028 hPa 30.24 in /  1023.9 hPa -
Precipitation: 0.00 in /  0 mm    
Historical Graphs
 
 
Tabular Data for August 13, 2017
Time Temperature Dew Point Pressure Wind Wind Speed Wind Gust Humidity Rainfall Rate (Hourly) solar Conditions
00:05 54.1 °F /  12.3 °C 21.7 °F /  -5.7 °C 30.31in /  1026.3hPa Calm     28% 0.00in /  0mm 0.0 W/m2
00:11 54.0 °F /  12.2 °C 21.6 °F /  -5.8 °C 30.31in /  1026.3hPa Calm   1.0mph /  1.6km/h 28% 0.00in /  0mm 0.0 W/m2
00:17 53.8 °F /  12.1 °C 20.7 °F /  -6.3 °C 30.31in /  1026.3hPa Calm     27% 0.00in /  0mm 0.0 W/m2
00:23 53.8 °F /  12.1 °C 21.4 °F /  -5.9 °C 30.31in /  1026.3hPa Calm     28% 0.00in /  0mm 0.0 W/m2
00:29 53.2 °F /  11.8 °C 21.0 °F /  -6.1 °C 30.31in /  1026.3hPa Calm     28% 0.00in /  0mm 0.0 W/m2
00:36 52.9 °F /  11.6 °C 21.6 °F /  -5.8 °C 30.31in /  1026.3hPa Calm     29% 0.00in /  0mm 0.0 W/m2
00:42 52.0 °F /  11.1 °C 20.7 °F /  -6.3 °C 30.31in /  1026.3hPa Calm     29% 0.00in /  0mm 0.0 W/m2
00:48 51.3 °F /  10.7 °C 20.8 °F /  -6.2 °C 30.32in /  1026.6hPa Calm     30% 0.00in /  0mm 0.0 W/m2
00:54 50.5 °F /  10.3 °C 21.0 °F /  -6.1 °C 30.32in /  1026.6hPa Calm     31% 0.00in /  0mm 0.0 W/m2
01:00 49.6 °F /  9.8 °C 21.0 °F /  -6.1 °C 30.32in /  1026.6hPa Calm     32% 0.00in /  0mm 0.0 W/m2
01:06 49.1 °F /  9.5 °C 21.2 °F /  -6 °C 30.33in /  1027hPa Calm     33% 0.00in /  0mm 0.0 W/m2
01:12 48.6 °F /  9.2 °C 19.9 °F /  -6.7 °C 30.32in /  1026.6hPa Calm     32% 0.00in /  0mm 0.0 W/m2
01:18 48.2 °F /  9 °C 21.2 °F /  -6 °C 30.33in /  1027hPa Calm     34% 0.00in /  0mm 0.0 W/m2
01:24 47.7 °F /  8.7 °C 20.7 °F /  -6.3 °C 30.33in /  1027hPa Calm     34% 0.00in /  0mm 5.0 W/m2
01:30 47.1 °F /  8.4 °C 20.8 °F /  -6.2 °C 30.33in /  1027hPa Calm     35% 0.00in /  0mm 9.0 W/m2
01:36 46.8 °F /  8.2 °C 20.5 °F /  -6.4 °C 30.33in /  1027hPa Calm     35% 0.00in /  0mm 11.0 W/m2
01:42 46.6 °F /  8.1 °C 21.0 °F /  -6.1 °C 30.33in /  1027hPa Calm     36% 0.00in /  0mm 12.0 W/m2
01:48 46.2 °F /  7.9 °C 21.4 °F /  -5.9 °C 30.33in /  1027hPa Calm     37% 0.00in /  0mm 14.0 W/m2
01:54 46.0 °F /  7.8 °C 21.9 °F /  -5.6 °C 30.33in /  1027hPa Calm     38% 0.00in /  0mm 16.0 W/m2
02:00 45.9 °F /  7.7 °C 21.7 °F /  -5.7 °C 30.34in /  1027.3hPa Calm     38% 0.00in /  0mm 19.0 W/m2
02:06 45.9 °F /  7.7 °C 22.8 °F /  -5.1 °C 30.34in /  1027.3hPa Calm     40% 0.00in /  0mm 19.0 W/m2
02:12 45.9 °F /  7.7 °C 23.5 °F /  -4.7 °C 30.34in /  1027.3hPa Calm     41% 0.00in /  0mm 21.0 W/m2
02:18 46.0 °F /  7.8 °C 23.7 °F /  -4.6 °C 30.35in /  1027.7hPa Calm     41% 0.00in /  0mm 23.0 W/m2
02:25 46.6 °F /  8.1 °C 24.1 °F /  -4.4 °C 30.34in /  1027.3hPa Calm     41% 0.00in /  0mm 25.0 W/m2
02:31 47.1 °F /  8.4 °C 25.2 °F /  -3.8 °C 30.35in /  1027.7hPa Calm     42% 0.00in /  0mm 26.0 W/m2
02:38 48.4 °F /  9.1 °C 25.2 °F /  -3.8 °C 30.35in /  1027.7hPa Calm     40% 0.00in /  0mm 28.0 W/m2
02:44 49.8 °F /  9.9 °C 24.6 °F /  -4.1 °C 30.35in /  1027.7hPa Calm     37% 0.00in /  0mm 28.0 W/m2
02:50 51.6 °F /  10.9 °C 24.1 °F /  -4.4 °C 30.35in /  1027.7hPa Calm     34% 0.00in /  0mm 30.0 W/m2
02:56 53.2 °F /  11.8 °C 23.4 °F /  -4.8 °C 30.35in /  1027.7hPa Calm     31% 0.00in /  0mm 30.0 W/m2
03:02 54.9 °F /  12.7 °C 23.2 °F /  -4.9 °C 30.35in /  1027.7hPa Calm     29% 0.00in /  0mm 32.0 W/m2
03:08 55.8 °F /  13.2 °C 23.9 °F /  -4.5 °C 30.35in /  1027.7hPa Calm     29% 0.00in /  0mm 33.0 W/m2
03:14 56.8 °F /  13.8 °C 23.2 °F /  -4.9 °C 30.35in /  1027.7hPa Calm     27% 0.00in /  0mm 33.0 W/m2
03:20 57.7 °F /  14.3 °C 23.9 °F /  -4.5 °C 30.35in /  1027.7hPa Calm     27% 0.00in /  0mm 35.0 W/m2
03:26 58.5 °F /  14.7 °C 23.7 °F /  -4.6 °C 30.36in /  1028hPa Calm     26% 0.00in /  0mm 37.0 W/m2
03:32 59.4 °F /  15.2 °C 23.5 °F /  -4.7 °C 30.36in /  1028hPa Calm   1.0mph /  1.6km/h 25% 0.00in /  0mm 443.0 W/m2
03:38 60.6 °F /  15.9 °C 23.5 °F /  -4.7 °C 30.36in /  1028hPa Calm   2.0mph /  3.2km/h 24% 0.00in /  0mm 462.0 W/m2
03:45 62.1 °F /  16.7 °C 24.8 °F /  -4 °C 30.36in /  1028hPa Calm   1.0mph /  1.6km/h 24% 0.00in /  0mm 483.0 W/m2
03:50 63.7 °F /  17.6 °C 24.1 °F /  -4.4 °C 30.36in /  1028hPa NE 0.9mph /  1.4km/h 4.0mph /  6.4km/h 22% 0.00in /  0mm 503.0 W/m2
03:56 65.7 °F /  18.7 °C 24.6 °F /  -4.1 °C 30.36in /  1028hPa Calm   6.0mph /  9.7km/h 21% 0.00in /  0mm 522.0 W/m2
04:02 67.3 °F /  19.6 °C 23.5 °F /  -4.7 °C 30.36in /  1028hPa Calm   5.0mph /  8km/h 19% 0.00in /  0mm 541.0 W/m2
04:08 68.4 °F /  20.2 °C 24.4 °F /  -4.2 °C 30.36in /  1028hPa North 0.9mph /  1.4km/h 1.0mph /  1.6km/h 19% 0.00in /  0mm 561.0 W/m2
04:15 69.3 °F /  20.7 °C 23.9 °F /  -4.5 °C 30.36in /  1028hPa Calm   5.0mph /  8km/h 18% 0.00in /  0mm 578.0 W/m2
04:20 69.8 °F /  21 °C 23.0 °F /  -5 °C 30.36in /  1028hPa NNE 4.9mph /  7.9km/h 6.0mph /  9.7km/h 17% 0.00in /  0mm 592.0 W/m2
04:26 70.2 °F /  21.2 °C 23.4 °F /  -4.8 °C 30.35in /  1027.7hPa Calm   7.0mph /  11.3km/h 17% 0.00in /  0mm 610.0 W/m2
04:32 70.7 °F /  21.5 °C 25.2 °F /  -3.8 °C 30.36in /  1028hPa East 0.9mph /  1.4km/h 5.0mph /  8km/h 18% 0.00in /  0mm 626.0 W/m2
04:40 71.2 °F /  21.8 °C 24.3 °F /  -4.3 °C 30.35in /  1027.7hPa East 0.9mph /  1.4km/h 5.0mph /  8km/h 17% 0.00in /  0mm 643.0 W/m2
04:46 71.6 °F /  22 °C 24.4 °F /  -4.2 °C 30.35in /  1027.7hPa East 2.9mph /  4.7km/h 7.0mph /  11.3km/h 17% 0.00in /  0mm 659.0 W/m2
04:52 72.0 °F /  22.2 °C 24.8 °F /  -4 °C 30.35in /  1027.7hPa North 2.9mph /  4.7km/h 6.0mph /  9.7km/h 17% 0.00in /  0mm 671.0 W/m2
04:58 72.3 °F /  22.4 °C 23.5 °F /  -4.7 °C 30.35in /  1027.7hPa North 2.0mph /  3.2km/h 2.0mph /  3.2km/h 16% 0.00in /  0mm 686.0 W/m2
05:05 72.7 °F /  22.6 °C 23.9 °F /  -4.5 °C 30.35in /  1027.7hPa Calm   1.0mph /  1.6km/h 16% 0.00in /  0mm 696.0 W/m2
05:10 73.0 °F /  22.8 °C 24.3 °F /  -4.3 °C 30.35in /  1027.7hPa NNE 2.9mph /  4.7km/h 7.0mph /  11.3km/h 16% 0.00in /  0mm 710.0 W/m2
05:16 73.6 °F /  23.1 °C 24.6 °F /  -4.1 °C 30.34in /  1027.3hPa NNE 2.9mph /  4.7km/h 5.0mph /  8km/h 16% 0.00in /  0mm 721.0 W/m2
05:22 73.8 °F /  23.2 °C 24.8 °F /  -4 °C 30.34in /  1027.3hPa ESE 2.9mph /  4.7km/h 3.0mph /  4.8km/h 16% 0.00in /  0mm 729.0 W/m2
05:29 73.8 °F /  23.2 °C 24.8 °F /  -4 °C 30.34in /  1027.3hPa Calm   2.0mph /  3.2km/h 16% 0.00in /  0mm 740.0 W/m2
05:35 72.9 °F /  22.7 °C 24.1 °F /  -4.4 °C 30.34in /  1027.3hPa West 2.0mph /  3.2km/h 3.0mph /  4.8km/h 16% 0.00in /  0mm 747.0 W/m2
05:41 73.4 °F /  23 °C 24.4 °F /  -4.2 °C 30.34in /  1027.3hPa NNW 0.9mph /  1.4km/h 6.0mph /  9.7km/h 16% 0.00in /  0mm 754.0 W/m2
05:47 73.9 °F /  23.3 °C 25.0 °F /  -3.9 °C 30.33in /  1027hPa Calm   2.0mph /  3.2km/h 16% 0.00in /  0mm 761.0 W/m2
05:53 74.1 °F /  23.4 °C 25.0 °F /  -3.9 °C 30.33in /  1027hPa Calm   1.0mph /  1.6km/h 16% 0.00in /  0mm 772.0 W/m2
05:59 74.5 °F /  23.6 °C 23.7 °F /  -4.6 °C 30.33in /  1027hPa Calm   6.0mph /  9.7km/h 15% 0.00in /  0mm 777.0 W/m2
06:06 74.8 °F /  23.8 °C 24.1 °F /  -4.4 °C 30.33in /  1027hPa North 4.0mph /  6.4km/h 4.0mph /  6.4km/h 15% 0.00in /  0mm 784.0 W/m2
06:11 75.4 °F /  24.1 °C 22.8 °F /  -5.1 °C 30.32in /  1026.6hPa South 2.0mph /  3.2km/h 8.0mph /  12.9km/h 14% 0.00in /  0mm 788.0 W/m2
06:17 74.7 °F /  23.7 °C 23.9 °F /  -4.5 °C 30.32in /  1026.6hPa Calm   4.0mph /  6.4km/h 15% 0.00in /  0mm 789.0 W/m2
06:23 74.5 °F /  23.6 °C 23.7 °F /  -4.6 °C 30.31in /  1026.3hPa West 0.9mph /  1.4km/h 5.0mph /  8km/h 15% 0.00in /  0mm 795.0 W/m2
06:29 75.0 °F /  23.9 °C 25.7 °F /  -3.5 °C 30.31in /  1026.3hPa NNW 0.9mph /  1.4km/h 6.0mph /  9.7km/h 16% 0.00in /  0mm 798.0 W/m2
06:35 75.6 °F /  24.2 °C 24.6 °F /  -4.1 °C 30.30in /  1026hPa NNW 2.9mph /  4.7km/h 5.0mph /  8km/h 15% 0.00in /  0mm 798.0 W/m2
06:41 75.9 °F /  24.4 °C 25.0 °F /  -3.9 °C 30.30in /  1026hPa North 2.0mph /  3.2km/h 4.0mph /  6.4km/h 15% 0.00in /  0mm 800.0 W/m2
06:47 76.5 °F /  24.7 °C 23.7 °F /  -4.6 °C 30.30in /  1026hPa NNW 0.9mph /  1.4km/h 1.0mph /  1.6km/h 14% 0.00in /  0mm 798.0 W/m2
06:53 76.8 °F /  24.9 °C 24.1 °F /  -4.4 °C 30.30in /  1026hPa NNW 2.9mph /  4.7km/h 6.0mph /  9.7km/h 14% 0.00in /  0mm 802.0 W/m2
06:59 76.6 °F /  24.8 °C 23.9 °F /  -4.5 °C 30.30in /  1026hPa NNE 4.0mph /  6.4km/h 5.0mph /  8km/h 14% 0.00in /  0mm 800.0 W/m2
07:05 76.5 °F /  24.7 °C 23.7 °F /  -4.6 °C 30.29in /  1025.6hPa ESE 2.0mph /  3.2km/h 4.0mph /  6.4km/h 14% 0.00in /  0mm 807.0 W/m2
07:11 76.6 °F /  24.8 °C 23.9 °F /  -4.5 °C 30.29in /  1025.6hPa Calm   4.0mph /  6.4km/h 14% 0.00in /  0mm 796.0 W/m2
07:17 76.8 °F /  24.9 °C 24.1 °F /  -4.4 °C 30.29in /  1025.6hPa Calm   2.0mph /  3.2km/h 14% 0.00in /  0mm 795.0 W/m2
07:23 77.2 °F /  25.1 °C 22.5 °F /  -5.3 °C 30.29in /  1025.6hPa Calm   6.0mph /  9.7km/h 13% 0.00in /  0mm 795.0 W/m2
07:30 77.4 °F /  25.2 °C 22.6 °F /  -5.2 °C 30.28in /  1025.3hPa Calm   1.0mph /  1.6km/h 13% 0.00in /  0mm 793.0 W/m2
07:36 77.2 °F /  25.1 °C 20.7 °F /  -6.3 °C 30.29in /  1025.6hPa Calm   8.0mph /  12.9km/h 12% 0.00in /  0mm 784.0 W/m2
07:42 76.6 °F /  24.8 °C 20.3 °F /  -6.5 °C 30.28in /  1025.3hPa WSW 2.9mph /  4.7km/h 4.0mph /  6.4km/h 12% 0.00in /  0mm 780.0 W/m2
07:48 76.1 °F /  24.5 °C 19.8 °F /  -6.8 °C 30.27in /  1024.9hPa West 0.9mph /  1.4km/h 2.0mph /  3.2km/h 12% 0.00in /  0mm 773.0 W/m2
07:54 75.9 °F /  24.4 °C 19.6 °F /  -6.9 °C 30.27in /  1024.9hPa West 6.9mph /  11.1km/h 7.0mph /  11.3km/h 12% 0.00in /  0mm 768.0 W/m2
08:00 76.5 °F /  24.7 °C 21.9 °F /  -5.6 °C 30.27in /  1024.9hPa NNW 2.9mph /  4.7km/h 6.0mph /  9.7km/h 13% 0.00in /  0mm 759.0 W/m2
08:06 76.6 °F /  24.8 °C 22.1 °F /  -5.5 °C 30.27in /  1024.9hPa SE 0.9mph /  1.4km/h 6.0mph /  9.7km/h 13% 0.00in /  0mm 751.0 W/m2
08:12 77.0 °F /  25 °C 20.5 °F /  -6.4 °C 30.27in /  1024.9hPa North 0.9mph /  1.4km/h 4.0mph /  6.4km/h 12% 0.00in /  0mm 740.0 W/m2
08:18 77.7 °F /  25.4 °C 21.0 °F /  -6.1 °C 30.26in /  1024.6hPa ENE 2.0mph /  3.2km/h 6.0mph /  9.7km/h 12% 0.00in /  0mm 728.0 W/m2
08:24 77.7 °F /  25.4 °C 21.0 °F /  -6.1 °C 30.26in /  1024.6hPa South 2.0mph /  3.2km/h 7.0mph /  11.3km/h 12% 0.00in /  0mm 717.0 W/m2
08:30 77.7 °F /  25.4 °C 21.0 °F /  -6.1 °C 30.26in /  1024.6hPa Calm     12% 0.00in /  0mm 708.0 W/m2
08:37 78.3 °F /  25.7 °C 21.6 °F /  -5.8 °C 30.25in /  1024.3hPa Calm   5.0mph /  8km/h 12% 0.00in /  0mm 694.0 W/m2
08:43 78.6 °F /  25.9 °C 21.7 °F /  -5.7 °C 30.25in /  1024.3hPa Calm   6.0mph /  9.7km/h 12% 0.00in /  0mm 686.0 W/m2
08:49 78.8 °F /  26 °C 21.9 °F /  -5.6 °C 30.25in /  1024.3hPa North 6.0mph /  9.7km/h 6.0mph /  9.7km/h 12% 0.00in /  0mm 677.0 W/m2
08:55 78.4 °F /  25.8 °C 21.6 °F /  -5.8 °C 30.25in /  1024.3hPa NNE 6.0mph /  9.7km/h 8.0mph /  12.9km/h 12% 0.00in /  0mm 657.0 W/m2
09:01 78.4 °F /  25.8 °C 21.6 °F /  -5.8 °C 30.24in /  1023.9hPa Calm   5.0mph /  8km/h 12% 0.00in /  0mm 645.0 W/m2
09:07 78.4 °F /  25.8 °C 21.6 °F /  -5.8 °C 30.24in /  1023.9hPa NE 2.0mph /  3.2km/h 6.0mph /  9.7km/h 12% 0.00in /  0mm 633.0 W/m2
09:13 78.4 °F /  25.8 °C 21.6 °F /  -5.8 °C 30.24in /  1023.9hPa ESE 2.9mph /  4.7km/h 4.0mph /  6.4km/h 12% 0.00in /  0mm 617.0 W/m2
09:20 78.3 °F /  25.7 °C 21.6 °F /  -5.8 °C 30.24in /  1023.9hPa SE 2.9mph /  4.7km/h 4.0mph /  6.4km/h 12% 0.00in /  0mm 601.0 W/m2
09:26 78.4 °F /  25.8 °C 21.6 °F /  -5.8 °C 30.24in /  1023.9hPa West 0.9mph /  1.4km/h 4.0mph /  6.4km/h 12% 0.00in /  0mm 585.0 W/m2
09:32 78.3 °F /  25.7 °C 21.6 °F /  -5.8 °C 30.24in /  1023.9hPa Calm   7.0mph /  11.3km/h 12% 0.00in /  0mm 568.0 W/m2
09:38 78.3 °F /  25.7 °C 19.4 °F /  -7 °C 30.24in /  1023.9hPa Calm   2.0mph /  3.2km/h 11% 0.00in /  0mm 548.0 W/m2
09:44 78.4 °F /  25.8 °C 19.6 °F /  -6.9 °C 30.24in /  1023.9hPa NE 2.9mph /  4.7km/h 5.0mph /  8km/h 11% 0.00in /  0mm 533.0 W/m2
09:50 78.6 °F /  25.9 °C 19.8 °F /  -6.8 °C 30.24in /  1023.9hPa SE 2.9mph /  4.7km/h 6.0mph /  9.7km/h 11% 0.00in /  0mm 512.0 W/m2
09:56 78.6 °F /  25.9 °C 19.8 °F /  -6.8 °C 30.24in /  1023.9hPa ESE 4.9mph /  7.9km/h 8.0mph /  12.9km/h 11% 0.00in /  0mm 496.0 W/m2
10:02 78.8 °F /  26 °C 19.8 °F /  -6.8 °C 30.24in /  1023.9hPa SE 0.9mph /  1.4km/h 2.0mph /  3.2km/h 11% 0.00in /  0mm 471.0 W/m2
10:08 78.6 °F /  25.9 °C 19.8 °F /  -6.8 °C 30.24in /  1023.9hPa Calm   3.0mph /  4.8km/h 11% 0.00in /  0mm 457.0 W/m2
10:14 78.4 °F /  25.8 °C 19.6 °F /  -6.9 °C 30.24in /  1023.9hPa North 2.0mph /  3.2km/h 3.0mph /  4.8km/h 11% 0.00in /  0mm 436.0 W/m2
10:20 78.8 °F /  26 °C 19.8 °F /  -6.8 °C 30.24in /  1023.9hPa Calm     11% 0.00in /  0mm 420.0 W/m2
10:26 79.2 °F /  26.2 °C 20.1 °F /  -6.6 °C 30.24in /  1023.9hPa WSW 0.9mph /  1.4km/h 7.0mph /  11.3km/h 11% 0.00in /  0mm 401.0 W/m2
10:32 79.2 °F /  26.2 °C 20.1 °F /  -6.6 °C 30.24in /  1023.9hPa Calm   2.0mph /  3.2km/h 11% 0.00in /  0mm 378.0 W/m2
10:38 79.0 °F /  26.1 °C 17.8 °F /  -7.9 °C 30.24in /  1023.9hPa Calm   5.0mph /  8km/h 10% 0.00in /  0mm 353.0 W/m2
10:44 78.4 °F /  25.8 °C 17.4 °F /  -8.1 °C 30.24in /  1023.9hPa Calm     10% 0.00in /  0mm 332.0 W/m2
10:50 78.1 °F /  25.6 °C 19.2 °F /  -7.1 °C 30.24in /  1023.9hPa NNW 2.9mph /  4.7km/h 5.0mph /  8km/h 11% 0.00in /  0mm 311.0 W/m2
10:56 77.7 °F /  25.4 °C 19.0 °F /  -7.2 °C 30.24in /  1023.9hPa Calm   2.0mph /  3.2km/h 11% 0.00in /  0mm 271.0 W/m2
11:03 77.4 °F /  25.2 °C 20.8 °F /  -6.2 °C 30.24in /  1023.9hPa ESE 2.0mph /  3.2km/h 7.0mph /  11.3km/h 12% 0.00in /  0mm 46.0 W/m2
11:09 77.2 °F /  25.1 °C 18.7 °F /  -7.4 °C 30.24in /  1023.9hPa East 0.9mph /  1.4km/h 6.0mph /  9.7km/h 11% 0.00in /  0mm 42.0 W/m2
11:15 76.8 °F /  24.9 °C 18.3 °F /  -7.6 °C 30.24in /  1023.9hPa NE 0.9mph /  1.4km/h 5.0mph /  8km/h 11% 0.00in /  0mm 40.0 W/m2
11:19 76.8 °F /  24.9 °C 18.3 °F /  -7.6 °C 30.24in /  1023.9hPa East 0.9mph /  1.4km/h 5.0mph /  8km/h 11% 0.00in /  0mm 37.0 W/m2
11:25 76.5 °F /  24.7 °C 18.0 °F /  -7.8 °C 30.24in /  1023.9hPa NNW 0.9mph /  1.4km/h 1.0mph /  1.6km/h 11% 0.00in /  0mm 47.0 W/m2
11:31 75.9 °F /  24.4 °C 19.6 °F /  -6.9 °C 30.24in /  1023.9hPa North 4.0mph /  6.4km/h 7.0mph /  11.3km/h 12% 0.00in /  0mm 42.0 W/m2
11:37 75.6 °F /  24.2 °C 19.4 °F /  -7 °C 30.24in /  1023.9hPa North 2.0mph /  3.2km/h 4.0mph /  6.4km/h 12% 0.00in /  0mm 76.0 W/m2
11:43 75.0 °F /  23.9 °C 19.0 °F /  -7.2 °C 30.24in /  1023.9hPa Calm   3.0mph /  4.8km/h 12% 0.00in /  0mm 44.0 W/m2
11:50 74.7 °F /  23.7 °C 18.7 °F /  -7.4 °C 30.24in /  1023.9hPa Calm   2.0mph /  3.2km/h 12% 0.00in /  0mm 25.0 W/m2
11:56 74.3 °F /  23.5 °C 20.3 °F /  -6.5 °C 30.25in /  1024.3hPa Calm   1.0mph /  1.6km/h 13% 0.00in /  0mm 28.0 W/m2
12:02 74.1 °F /  23.4 °C 20.1 °F /  -6.6 °C 30.25in /  1024.3hPa Calm   1.0mph /  1.6km/h 13% 0.00in /  0mm 21.0 W/m2
12:08 73.9 °F /  23.3 °C 19.9 °F /  -6.7 °C 30.25in /  1024.3hPa Calm   1.0mph /  1.6km/h 13% 0.00in /  0mm 21.0 W/m2
12:14 73.4 °F /  23 °C 19.6 °F /  -6.9 °C 30.25in /  1024.3hPa Calm   4.0mph /  6.4km/h 13% 0.00in /  0mm 14.0 W/m2
12:20 72.9 °F /  22.7 °C 20.8 °F /  -6.2 °C 30.25in /  1024.3hPa East 0.9mph /  1.4km/h 2.0mph /  3.2km/h 14% 0.00in /  0mm 12.0 W/m2
12:26 72.3 °F /  22.4 °C 18.7 °F /  -7.4 °C 30.25in /  1024.3hPa Calm   1.0mph /  1.6km/h 13% 0.00in /  0mm 9.0 W/m2
12:32 71.8 °F /  22.1 °C 19.9 °F /  -6.7 °C 30.25in /  1024.3hPa Calm     14% 0.00in /  0mm 5.0 W/m2
12:39 71.2 °F /  21.8 °C 19.6 °F /  -6.9 °C 30.25in /  1024.3hPa Calm   1.0mph /  1.6km/h 14% 0.00in /  0mm 0.0 W/m2
12:45 70.3 °F /  21.3 °C 20.5 °F /  -6.4 °C 30.25in /  1024.3hPa Calm   1.0mph /  1.6km/h 15% 0.00in /  0mm 0.0 W/m2
12:51 69.6 °F /  20.9 °C 19.9 °F /  -6.7 °C 30.25in /  1024.3hPa Calm     15% 0.00in /  0mm 0.0 W/m2
12:57 68.9 °F /  20.5 °C 19.4 °F /  -7 °C 30.26in /  1024.6hPa Calm     15% 0.00in /  0mm 0.0 W/m2
13:03 68.0 °F /  20 °C 20.1 °F /  -6.6 °C 30.26in /  1024.6hPa Calm     16% 0.00in /  0mm 0.0 W/m2
13:09 67.3 °F /  19.6 °C 21.0 °F /  -6.1 °C 30.26in /  1024.6hPa Calm     17% 0.00in /  0mm 0.0 W/m2
13:15 66.6 °F /  19.2 °C 20.3 °F /  -6.5 °C 30.26in /  1024.6hPa Calm     17% 0.00in /  0mm 0.0 W/m2
13:21 65.7 °F /  18.7 °C 19.6 °F /  -6.9 °C 30.26in /  1024.6hPa Calm   1.0mph /  1.6km/h 17% 0.00in /  0mm 0.0 W/m2
13:28 65.1 °F /  18.4 °C 19.2 °F /  -7.1 °C 30.26in /  1024.6hPa Calm     17% 0.00in /  0mm 0.0 W/m2
13:34 64.6 °F /  18.1 °C 20.1 °F /  -6.6 °C 30.26in /  1024.6hPa Calm     18% 0.00in /  0mm 0.0 W/m2
13:40 63.9 °F /  17.7 °C 19.6 °F /  -6.9 °C 30.26in /  1024.6hPa Calm     18% 0.00in /  0mm 0.0 W/m2
13:46 63.3 °F /  17.4 °C 19.0 °F /  -7.2 °C 30.27in /  1024.9hPa Calm     18% 0.00in /  0mm 0.0 W/m2
13:52 62.8 °F /  17.1 °C 18.7 °F /  -7.4 °C 30.27in /  1024.9hPa Calm   1.0mph /  1.6km/h 18% 0.00in /  0mm 0.0 W/m2
13:58 62.2 °F /  16.8 °C 19.4 °F /  -7 °C 30.27in /  1024.9hPa Calm   1.0mph /  1.6km/h 19% 0.00in /  0mm 0.0 W/m2
14:04 61.9 °F /  16.6 °C 19.2 °F /  -7.1 °C 30.28in /  1025.3hPa Calm   1.0mph /  1.6km/h 19% 0.00in /  0mm 0.0 W/m2
14:10 61.5 °F /  16.4 °C 18.9 °F /  -7.3 °C 30.28in /  1025.3hPa Calm   1.0mph /  1.6km/h 19% 0.00in /  0mm 0.0 W/m2
14:16 61.2 °F /  16.2 °C 18.5 °F /  -7.5 °C 30.28in /  1025.3hPa Calm   2.0mph /  3.2km/h 19% 0.00in /  0mm 0.0 W/m2
14:22 61.0 °F /  16.1 °C 18.5 °F /  -7.5 °C 30.28in /  1025.3hPa East 0.9mph /  1.4km/h 1.0mph /  1.6km/h 19% 0.00in /  0mm 0.0 W/m2
14:28 60.4 °F /  15.8 °C 18.0 °F /  -7.8 °C 30.28in /  1025.3hPa Calm   1.0mph /  1.6km/h 19% 0.00in /  0mm 0.0 W/m2
14:34 60.3 °F /  15.7 °C 19.0 °F /  -7.2 °C 30.28in /  1025.3hPa Calm   3.0mph /  4.8km/h 20% 0.00in /  0mm 0.0 W/m2
14:40 59.7 °F /  15.4 °C 18.5 °F /  -7.5 °C 30.28in /  1025.3hPa Calm   2.0mph /  3.2km/h 20% 0.00in /  0mm 0.0 W/m2
14:46 59.5 °F /  15.3 °C 18.5 °F /  -7.5 °C 30.28in /  1025.3hPa Calm   1.0mph /  1.6km/h 20% 0.00in /  0mm 0.0 W/m2
14:52 59.4 °F /  15.2 °C 18.3 °F /  -7.6 °C 30.28in /  1025.3hPa Calm   1.0mph /  1.6km/h 20% 0.00in /  0mm 0.0 W/m2
14:59 58.8 °F /  14.9 °C 17.8 °F /  -7.9 °C 30.29in /  1025.6hPa Calm   1.0mph /  1.6km/h 20% 0.00in /  0mm 0.0 W/m2
15:05 58.6 °F /  14.8 °C 17.6 °F /  -8 °C 30.29in /  1025.6hPa Calm     20% 0.00in /  0mm 0.0 W/m2
15:11 58.3 °F /  14.6 °C 18.5 °F /  -7.5 °C 30.29in /  1025.6hPa Calm     21% 0.00in /  0mm 0.0 W/m2
15:17 58.1 °F /  14.5 °C 18.3 °F /  -7.6 °C 30.29in /  1025.6hPa Calm   1.0mph /  1.6km/h 21% 0.00in /  0mm 0.0 W/m2
15:23 57.7 °F /  14.3 °C 18.1 °F /  -7.7 °C 30.30in /  1026hPa Calm     21% 0.00in /  0mm 0.0 W/m2
15:29 57.6 °F /  14.2 °C 18.0 °F /  -7.8 °C 30.30in /  1026hPa Calm   1.0mph /  1.6km/h 21% 0.00in /  0mm 0.0 W/m2
15:35 57.4 °F /  14.1 °C 17.8 °F /  -7.9 °C 30.30in /  1026hPa Calm   2.0mph /  3.2km/h 21% 0.00in /  0mm 0.0 W/m2
15:41 57.0 °F /  13.9 °C 18.5 °F /  -7.5 °C 30.30in /  1026hPa Calm     22% 0.00in /  0mm 0.0 W/m2
15:47 56.8 °F /  13.8 °C 18.3 °F /  -7.6 °C 30.30in /  1026hPa Calm     22% 0.00in /  0mm 0.0 W/m2
15:55 56.5 °F /  13.6 °C 18.1 °F /  -7.7 °C 30.31in /  1026.3hPa Calm     22% 0.00in /  0mm 0.0 W/m2
16:02 55.9 °F /  13.3 °C 17.6 °F /  -8 °C 30.31in /  1026.3hPa Calm     22% 0.00in /  0mm 0.0 W/m2
16:08 55.8 °F /  13.2 °C 18.5 °F /  -7.5 °C 30.31in /  1026.3hPa Calm     23% 0.00in /  0mm 0.0 W/m2
16:14 55.6 °F /  13.1 °C 18.3 °F /  -7.6 °C 30.31in /  1026.3hPa Calm     23% 0.00in /  0mm 0.0 W/m2
16:20 55.2 °F /  12.9 °C 18.1 °F /  -7.7 °C 30.31in /  1026.3hPa Calm     23% 0.00in /  0mm 0.0 W/m2
16:26 54.9 °F /  12.7 °C 18.7 °F /  -7.4 °C 30.32in /  1026.6hPa Calm     24% 0.00in /  0mm 0.0 W/m2
16:32 54.7 °F /  12.6 °C 18.5 °F /  -7.5 °C 30.31in /  1026.3hPa Calm     24% 0.00in /  0mm 0.0 W/m2
16:38 54.3 °F /  12.4 °C 19.2 °F /  -7.1 °C 30.31in /  1026.3hPa Calm     25% 0.00in /  0mm 0.0 W/m2
16:45 54.1 °F /  12.3 °C 19.0 °F /  -7.2 °C 30.32in /  1026.6hPa Calm     25% 0.00in /  0mm 0.0 W/m2
16:51 53.8 °F /  12.1 °C 18.9 °F /  -7.3 °C 30.31in /  1026.3hPa Calm     25% 0.00in /  0mm 0.0 W/m2
16:57 53.4 °F /  11.9 °C 18.5 °F /  -7.5 °C 30.31in /  1026.3hPa Calm     25% 0.00in /  0mm 0.0 W/m2
17:03 53.1 °F /  11.7 °C 19.0 °F /  -7.2 °C 30.32in /  1026.6hPa Calm     26% 0.00in /  0mm 0.0 W/m2
17:09 52.9 °F /  11.6 °C 18.9 °F /  -7.3 °C 30.32in /  1026.6hPa Calm     26% 0.00in /  0mm 0.0 W/m2
17:15 52.5 °F /  11.4 °C 18.7 °F /  -7.4 °C 30.32in /  1026.6hPa Calm     26% 0.00in /  0mm 0.0 W/m2
17:21 52.3 °F /  11.3 °C 18.5 °F /  -7.5 °C 30.32in /  1026.6hPa Calm     26% 0.00in /  0mm 0.0 W/m2
17:27 52.2 °F /  11.2 °C 18.3 °F /  -7.6 °C 30.32in /  1026.6hPa Calm     26% 0.00in /  0mm 0.0 W/m2
17:33 52.0 °F /  11.1 °C 18.1 °F /  -7.7 °C 30.32in /  1026.6hPa Calm     26% 0.00in /  0mm 0.0 W/m2
17:40 51.6 °F /  10.9 °C 18.7 °F /  -7.4 °C 30.32in /  1026.6hPa Calm     27% 0.00in /  0mm 0.0 W/m2
17:46 51.4 °F /  10.8 °C 18.5 °F /  -7.5 °C 30.33in /  1027hPa Calm     27% 0.00in /  0mm 0.0 W/m2
17:52 51.3 °F /  10.7 °C 19.2 °F /  -7.1 °C 30.32in /  1026.6hPa Calm     28% 0.00in /  0mm 0.0 W/m2
17:58 51.1 °F /  10.6 °C 19.0 °F /  -7.2 °C 30.33in /  1027hPa Calm     28% 0.00in /  0mm 0.0 W/m2
18:04 50.7 °F /  10.4 °C 18.0 °F /  -7.8 °C 30.32in /  1026.6hPa Calm     27% 0.00in /  0mm 0.0 W/m2
18:10 50.4 °F /  10.2 °C 18.5 °F /  -7.5 °C 30.33in /  1027hPa Calm     28% 0.00in /  0mm 0.0 W/m2
18:16 50.0 °F /  10 °C 18.1 °F /  -7.7 °C 30.32in /  1026.6hPa Calm     28% 0.00in /  0mm 0.0 W/m2
18:22 49.6 °F /  9.8 °C 18.7 °F /  -7.4 °C 30.32in /  1026.6hPa Calm     29% 0.00in /  0mm 0.0 W/m2
18:29 49.5 °F /  9.7 °C 19.2 °F /  -7.1 °C 30.32in /  1026.6hPa Calm     30% 0.00in /  0mm 0.0 W/m2
18:35 49.3 °F /  9.6 °C 19.2 °F /  -7.1 °C 30.32in /  1026.6hPa Calm     30% 0.00in /  0mm 0.0 W/m2
18:41 48.9 °F /  9.4 °C 18.9 °F /  -7.3 °C 30.32in /  1026.6hPa Calm     30% 0.00in /  0mm 0.0 W/m2
18:47 48.7 °F /  9.3 °C 18.0 °F /  -7.8 °C 30.32in /  1026.6hPa Calm     29% 0.00in /  0mm 0.0 W/m2
18:53 48.7 °F /  9.3 °C 18.0 °F /  -7.8 °C 30.33in /  1027hPa Calm     29% 0.00in /  0mm 0.0 W/m2
18:59 48.9 °F /  9.4 °C 18.9 °F /  -7.3 °C 30.33in /  1027hPa Calm     30% 0.00in /  0mm 0.0 W/m2
19:05 49.1 °F /  9.5 °C 19.0 °F /  -7.2 °C 30.33in /  1027hPa Calm     30% 0.00in /  0mm 0.0 W/m2
19:11 49.3 °F /  9.6 °C 19.2 °F /  -7.1 °C 30.33in /  1027hPa Calm     30% 0.00in /  0mm 0.0 W/m2
19:18 49.3 °F /  9.6 °C 19.2 °F /  -7.1 °C 30.33in /  1027hPa Calm     30% 0.00in /  0mm 0.0 W/m2
19:24 49.3 °F /  9.6 °C 19.2 °F /  -7.1 °C 30.33in /  1027hPa Calm   1.0mph /  1.6km/h 30% 0.00in /  0mm 0.0 W/m2
19:30 49.3 °F /  9.6 °C 19.2 °F /  -7.1 °C 30.32in /  1026.6hPa Calm     30% 0.00in /  0mm 0.0 W/m2
19:36 49.3 °F /  9.6 °C 19.2 °F /  -7.1 °C 30.32in /  1026.6hPa Calm   1.0mph /  1.6km/h 30% 0.00in /  0mm 0.0 W/m2
19:42 49.5 °F /  9.7 °C 20.1 °F /  -6.6 °C 30.32in /  1026.6hPa Calm     31% 0.00in /  0mm 0.0 W/m2
19:48 49.5 °F /  9.7 °C 19.2 °F /  -7.1 °C 30.32in /  1026.6hPa Calm   1.0mph /  1.6km/h 30% 0.00in /  0mm 0.0 W/m2
19:54 49.6 °F /  9.8 °C 19.4 °F /  -7 °C 30.32in /  1026.6hPa Calm     30% 0.00in /  0mm 0.0 W/m2
20:01 49.6 °F /  9.8 °C 19.4 °F /  -7 °C 30.32in /  1026.6hPa Calm     30% 0.00in /  0mm 0.0 W/m2
20:07 49.6 °F /  9.8 °C 19.4 °F /  -7 °C 30.33in /  1027hPa Calm     30% 0.00in /  0mm 0.0 W/m2
20:13 49.6 °F /  9.8 °C 19.4 °F /  -7 °C 30.33in /  1027hPa Calm     30% 0.00in /  0mm 0.0 W/m2
20:19 49.6 °F /  9.8 °C 19.4 °F /  -7 °C 30.33in /  1027hPa Calm     30% 0.00in /  0mm 0.0 W/m2
20:25 49.5 °F /  9.7 °C 19.2 °F /  -7.1 °C 30.33in /  1027hPa Calm     30% 0.00in /  0mm 0.0 W/m2
20:31 49.5 °F /  9.7 °C 19.2 °F /  -7.1 °C 30.33in /  1027hPa Calm     30% 0.00in /  0mm 0.0 W/m2
20:37 49.3 °F /  9.6 °C 19.2 °F /  -7.1 °C 30.33in /  1027hPa Calm     30% 0.00in /  0mm 0.0 W/m2
20:44 49.3 °F /  9.6 °C 19.2 °F /  -7.1 °C 30.33in /  1027hPa Calm     30% 0.00in /  0mm 0.0 W/m2
20:50 48.9 °F /  9.4 °C 18.9 °F /  -7.3 °C 30.33in /  1027hPa Calm   4.0mph /  6.4km/h 30% 0.00in /  0mm 0.0 W/m2
20:56 48.9 °F /  9.4 °C 18.9 °F /  -7.3 °C 30.33in /  1027hPa Calm   3.0mph /  4.8km/h 30% 0.00in /  0mm 0.0 W/m2
21:02 49.8 °F /  9.9 °C 18.9 °F /  -7.3 °C 30.33in /  1027hPa NE 2.0mph /  3.2km/h 3.0mph /  4.8km/h 29% 0.00in /  0mm 0.0 W/m2
21:08 51.4 °F /  10.8 °C 18.5 °F /  -7.5 °C 30.33in /  1027hPa East 0.9mph /  1.4km/h 4.0mph /  6.4km/h 27% 0.00in /  0mm 0.0 W/m2
21:14 53.1 °F /  11.7 °C 19.0 °F /  -7.2 °C 30.33in /  1027hPa Calm   2.0mph /  3.2km/h 26% 0.00in /  0mm 0.0 W/m2
21:20 53.6 °F /  12 °C 19.6 °F /  -6.9 °C 30.33in /  1027hPa Calm     26% 0.00in /  0mm 0.0 W/m2
21:27 53.4 °F /  11.9 °C 19.4 °F /  -7 °C 30.33in /  1027hPa Calm     26% 0.00in /  0mm 0.0 W/m2
21:33 53.2 °F /  11.8 °C 19.2 °F /  -7.1 °C 30.33in /  1027hPa Calm   1.0mph /  1.6km/h 26% 0.00in /  0mm 0.0 W/m2
21:39 52.9 °F /  11.6 °C 18.9 °F /  -7.3 °C 30.33in /  1027hPa Calm   1.0mph /  1.6km/h 26% 0.00in /  0mm 0.0 W/m2
21:45 52.3 °F /  11.3 °C 18.5 °F /  -7.5 °C 30.33in /  1027hPa Calm     26% 0.00in /  0mm 0.0 W/m2
21:51 52.0 °F /  11.1 °C 19.0 °F /  -7.2 °C 30.33in /  1027hPa Calm     27% 0.00in /  0mm 0.0 W/m2
21:57 51.4 °F /  10.8 °C 19.4 °F /  -7 °C 30.33in /  1027hPa Calm     28% 0.00in /  0mm 0.0 W/m2
22:04 50.9 °F /  10.5 °C 19.8 °F /  -6.8 °C 30.33in /  1027hPa Calm     29% 0.00in /  0mm 0.0 W/m2
22:10 50.4 °F /  10.2 °C 19.2 °F /  -7.1 °C 30.33in /  1027hPa Calm     29% 0.00in /  0mm 0.0 W/m2
22:16 49.6 °F /  9.8 °C 19.4 °F /  -7 °C 30.33in /  1027hPa Calm     30% 0.00in /  0mm 0.0 W/m2
22:22 49.3 °F /  9.6 °C 19.2 °F /  -7.1 °C 30.33in /  1027hPa Calm     30% 0.00in /  0mm 0.0 W/m2
22:28 48.7 °F /  9.3 °C 18.7 °F /  -7.4 °C 30.33in /  1027hPa Calm     30% 0.00in /  0mm 0.0 W/m2
22:34 48.4 °F /  9.1 °C 19.9 °F /  -6.7 °C 30.33in /  1027hPa Calm     32% 0.00in /  0mm 0.0 W/m2
22:40 48.0 °F /  8.9 °C 19.6 °F /  -6.9 °C 30.33in /  1027hPa Calm     32% 0.00in /  0mm 0.0 W/m2
22:47 47.8 °F /  8.8 °C 19.4 °F /  -7 °C 30.33in /  1027hPa Calm     32% 0.00in /  0mm 0.0 W/m2
22:53 47.7 °F /  8.7 °C 19.9 °F /  -6.7 °C 30.33in /  1027hPa Calm     33% 0.00in /  0mm 0.0 W/m2
22:59 47.5 °F /  8.6 °C 19.8 °F /  -6.8 °C 30.33in /  1027hPa Calm     33% 0.00in /  0mm 0.0 W/m2
23:05 47.5 °F /  8.6 °C 19.8 °F /  -6.8 °C 30.33in /  1027hPa Calm     33% 0.00in /  0mm 0.0 W/m2
23:11 47.3 °F /  8.5 °C 20.3 °F /  -6.5 °C 30.33in /  1027hPa Calm     34% 0.00in /  0mm 0.0 W/m2
23:17 47.3 °F /  8.5 °C 20.3 °F /  -6.5 °C 30.33in /  1027hPa Calm     34% 0.00in /  0mm 0.0 W/m2
23:23 47.1 °F /  8.4 °C 20.1 °F /  -6.6 °C 30.34in /  1027.3hPa Calm   1.0mph /  1.6km/h 34% 0.00in /  0mm 0.0 W/m2
23:30 47.3 °F /  8.5 °C 20.3 °F /  -6.5 °C 30.34in /  1027.3hPa Calm     34% 0.00in /  0mm 0.0 W/m2
23:36 47.5 °F /  8.6 °C 20.5 °F /  -6.4 °C 30.34in /  1027.3hPa Calm     34% 0.00in /  0mm 0.0 W/m2
23:42 47.5 °F /  8.6 °C 20.5 °F /  -6.4 °C 30.34in /  1027.3hPa Calm     34% 0.00in /  0mm 0.0 W/m2
23:48 47.5 °F /  8.6 °C 20.5 °F /  -6.4 °C 30.34in /  1027.3hPa Calm     34% 0.00in /  0mm 0.0 W/m2
23:54 47.5 °F /  8.6 °C 20.5 °F /  -6.4 °C 30.34in /  1027.3hPa Calm     34% 0.00in /  0mm 0.0 W/m2
Olympia, Windhoek, Namibia
Compliments of Weather Underground - 3 mb